Time;durP1;ratioP1;P1;durP2;ratioP2;P2;SDS_P1;SDS_P2;PMS_P1;PMS_P2;Temp;Humidity;BMP_temperature;BMP_pressure;BME280_temperature;BME280_humidity;BME280_pressure;Samples;Min_cycle;Max_cycle;Signal;HPM_P1;HPM_P2
2022/11/22 00:01:03;;;;;;;7.47;5.80;;;11.80;87.20;;;;;;5035060;28;20112;-80
2022/11/22 00:03:28;;;;;;;9.73;7.97;;;11.80;87.30;;;;;;5040541;28;20021;-80
2022/11/22 00:05:54;;;;;;;7.40;5.80;;;11.70;88.10;;;;;;5040067;28;20083;-81
2022/11/22 00:08:20;;;;;;;6.75;5.43;;;11.70;87.80;;;;;;5034538;28;20033;-81
2022/11/22 00:10:50;;;;;;;8.38;5.65;;;11.80;87.80;;;;;;5045091;28;20111;-79
2022/11/22 00:13:16;;;;;;;10.15;6.55;;;11.80;87.80;;;;;;5041727;28;20029;-81
2022/11/22 00:15:42;;;;;;;9.20;6.10;;;11.80;87.80;;;;;;5029756;28;20453;-80
2022/11/22 00:18:08;;;;;;;6.25;5.30;;;11.90;87.60;;;;;;5049025;28;20048;-80
2022/11/22 00:20:33;;;;;;;8.38;6.25;;;11.90;87.70;;;;;;5051679;28;20032;-81
2022/11/22 00:22:59;;;;;;;8.38;6.60;;;11.90;87.60;;;;;;5038024;28;20143;-81
2022/11/22 00:25:26;;;;;;;6.47;5.43;;;11.90;87.90;;;;;;5041252;28;20075;-80
2022/11/22 00:27:52;;;;;;;6.85;5.25;;;11.90;87.80;;;;;;5048379;28;20021;-81
2022/11/22 00:30:18;;;;;;;8.65;5.80;;;11.80;88.00;;;;;;5035957;28;20037;-80
2022/11/22 00:32:44;;;;;;;6.75;5.68;;;11.80;87.90;;;;;;5044169;28;20370;-81
2022/11/22 00:35:11;;;;;;;8.18;5.80;;;11.80;88.00;;;;;;5035663;28;20033;-81
2022/11/22 00:37:37;;;;;;;8.70;6.55;;;11.90;88.00;;;;;;5045041;28;20074;-81
2022/11/22 00:40:03;;;;;;;5.85;5.13;;;11.90;88.50;;;;;;5034980;28;20034;-80
2022/11/22 00:42:29;;;;;;;7.60;5.25;;;11.90;88.40;;;;;;5022125;28;20087;-80
2022/11/22 00:44:55;;;;;;;7.72;5.40;;;11.90;88.30;;;;;;5034017;28;20479;-79
2022/11/22 00:47:20;;;;;;;7.95;6.03;;;11.90;88.20;;;;;;5033619;28;20514;-79
2022/11/22 00:49:46;;;;;;;8.45;5.10;;;11.90;88.30;;;;;;5040624;28;20446;-79
2022/11/22 00:52:12;;;;;;;7.65;5.53;;;11.90;88.50;;;;;;5046754;28;20033;-79
2022/11/22 00:54:38;;;;;;;8.82;5.60;;;11.90;88.70;;;;;;5034084;28;20029;-84
2022/11/22 00:57:04;;;;;;;7.65;5.60;;;11.80;88.20;;;;;;5035141;28;20029;-81
2022/11/22 00:59:29;;;;;;;7.22;5.50;;;11.80;88.20;;;;;;5042192;28;20521;-81
2022/11/22 01:01:55;;;;;;;7.45;5.90;;;11.90;88.20;;;;;;5045608;28;20461;-81
2022/11/22 01:04:20;;;;;;;6.53;4.57;;;11.80;88.20;;;;;;5043480;28;20036;-83
2022/11/22 01:06:46;;;;;;;6.38;5.32;;;11.90;88.20;;;;;;5058598;28;20083;-83
2022/11/22 01:09:18;;;;;;;5.68;4.80;;;11.80;88.20;;;;;;5041373;28;20500;-81
2022/11/22 01:11:43;;;;;;;8.23;6.70;;;11.80;88.20;;;;;;5057462;28;20045;-81
2022/11/22 01:14:09;;;;;;;5.60;4.72;;;11.80;88.40;;;;;;5043269;28;20067;-81
2022/11/22 01:16:34;;;;;;;6.15;5.07;;;11.80;88.10;;;;;;5026769;28;20029;-81
2022/11/22 01:19:00;;;;;;;6.80;4.55;;;11.90;88.00;;;;;;5049183;28;20033;-81
2022/11/22 01:21:26;;;;;;;5.95;4.32;;;11.90;87.70;;;;;;5051937;28;20025;-84
2022/11/22 01:23:51;;;;;;;6.15;5.05;;;11.90;87.80;;;;;;5042567;28;20077;-83
2022/11/22 01:26:17;;;;;;;6.25;5.13;;;11.90;87.60;;;;;;5053636;28;20025;-84
2022/11/22 01:28:43;;;;;;;4.65;4.15;;;11.90;87.50;;;;;;5049014;28;20057;-82
2022/11/22 01:31:09;;;;;;;6.22;4.78;;;11.90;87.50;;;;;;5042923;28;20067;-82
2022/11/22 01:33:34;;;;;;;6.53;4.55;;;12.00;87.40;;;;;;5041855;28;20044;-82
2022/11/22 01:36:00;;;;;;;4.82;3.88;;;12.00;87.30;;;;;;5051146;28;20037;-82
2022/11/22 01:38:26;;;;;;;6.72;5.43;;;12.10;87.20;;;;;;5043821;28;20079;-82
2022/11/22 01:40:52;;;;;;;7.22;5.15;;;12.10;87.30;;;;;;5039630;28;20096;-82
2022/11/22 01:43:21;;;;;;;7.82;5.63;;;12.10;87.30;;;;;;5045032;28;20052;-82
2022/11/22 01:45:50;;;;;;;7.30;5.25;;;12.00;88.00;;;;;;5048311;28;20396;-82
2022/11/22 01:48:22;;;;;;;7.78;5.20;;;12.00;88.00;;;;;;5042553;28;20069;-82
2022/11/22 01:50:52;;;;;;;6.45;4.80;;;12.00;88.50;;;;;;5045083;28;20029;-82
2022/11/22 01:53:23;;;;;;;10.07;6.30;;;12.00;88.90;;;;;;5042579;28;20037;-82
2022/11/22 01:55:51;;;;;;;6.88;4.82;;;12.00;90.10;;;;;;5043366;28;20033;-85
2022/11/22 01:58:18;;;;;;;6.00;5.13;;;12.00;89.80;;;;;;5049350;28;20072;-85
2022/11/22 02:00:44;;;;;;;5.80;4.70;;;11.90;90.00;;;;;;5048515;28;20639;-84
2022/11/22 02:03:12;;;;;;;6.78;4.68;;;11.80;90.00;;;;;;5046452;28;20159;-86
2022/11/22 02:05:38;;;;;;;7.95;5.38;;;11.80;90.00;;;;;;5051653;28;20036;-87
2022/11/22 02:08:24;;;;;;;6.40;5.15;;;11.70;90.30;;;;;;5045630;28;20029;-87
2022/11/22 02:10:54;;;;;;;7.07;5.60;;;11.70;90.50;;;;;;5043008;28;20025;-87
2022/11/22 02:13:22;;;;;;;5.93;4.93;;;11.70;90.40;;;;;;5042728;28;20034;-88
2022/11/22 02:15:49;;;;;;;6.45;4.97;;;11.70;90.40;;;;;;5045122;28;20037;-87
2022/11/22 02:18:15;;;;;;;5.90;3.97;;;11.80;90.30;;;;;;5034995;28;20041;-88
2022/11/22 02:20:41;;;;;;;8.30;6.55;;;11.80;90.20;;;;;;5042750;28;20096;-87
2022/11/22 02:23:24;;;;;;;5.60;4.65;;;11.80;90.40;;;;;;5041844;28;20075;-84
2022/11/22 02:25:55;;;;;;;7.15;5.38;;;11.80;90.30;;;;;;5040916;28;20031;-85
2022/11/22 02:28:21;;;;;;;5.82;5.13;;;11.70;90.30;;;;;;5037660;28;20029;-84
2022/11/22 02:30:47;;;;;;;6.30;5.30;;;11.80;90.30;;;;;;5039622;28;20021;-83
2022/11/22 02:33:13;;;;;;;12.98;6.65;;;11.80;90.50;;;;;;5024438;28;20509;-83
2022/11/22 02:35:40;;;;;;;6.35;5.35;;;11.80;90.50;;;;;;5038962;28;20474;-83
2022/11/22 02:38:16;;;;;;;5.68;4.40;;;11.90;90.50;;;;;;5049711;28;20397;-84
2022/11/22 02:40:51;;;;;;;8.05;5.65;;;11.80;90.60;;;;;;5039259;28;20470;-83
2022/11/22 02:43:24;;;;;;;7.30;5.18;;;11.80;90.70;;;;;;5036339;28;20090;-85
2022/11/22 02:45:49;;;;;;;6.95;4.80;;;11.80;90.70;;;;;;5043072;28;20088;-84
2022/11/22 02:48:16;;;;;;;5.55;4.72;;;11.70;90.80;;;;;;5040534;28;20450;-84
2022/11/22 02:50:43;;;;;;;10.20;4.95;;;11.70;90.90;;;;;;5037868;28;20029;-84
2022/11/22 02:53:10;;;;;;;6.18;5.10;;;11.70;91.10;;;;;;5037291;28;20040;-84
2022/11/22 02:55:36;;;;;;;6.60;4.63;;;11.70;91.10;;;;;;5045812;28;20021;-83
2022/11/22 02:58:02;;;;;;;6.70;4.72;;;11.80;91.10;;;;;;5042458;28;20036;-84
2022/11/22 03:00:27;;;;;;;6.57;4.93;;;11.70;91.30;;;;;;5041309;28;20025;-85
2022/11/22 03:02:54;;;;;;;6.50;4.70;;;11.60;91.10;;;;;;5049963;28;20033;-83
2022/11/22 03:05:19;;;;;;;8.05;5.00;;;11.40;91.50;;;;;;5043383;28;20028;-83
2022/11/22 03:07:45;;;;;;;5.97;4.88;;;11.40;91.50;;;;;;5042517;28;20397;-83
2022/11/22 03:10:11;;;;;;;7.85;5.32;;;11.40;91.50;;;;;;5037179;28;20021;-83
2022/11/22 03:12:36;;;;;;;5.40;4.07;;;11.40;91.70;;;;;;5041632;28;20045;-82
2022/11/22 03:15:02;;;;;;;4.97;4.47;;;11.50;91.40;;;;;;5040951;28;20382;-82
2022/11/22 03:17:28;;;;;;;7.65;4.55;;;11.40;91.60;;;;;;5044094;28;20025;-82
2022/11/22 03:19:54;;;;;;;6.72;4.57;;;11.40;91.90;;;;;;5041729;28;20400;-82
2022/11/22 03:22:19;;;;;;;6.65;4.80;;;11.30;91.70;;;;;;5040443;28;20033;-83
2022/11/22 03:24:45;;;;;;;5.32;4.40;;;11.30;91.80;;;;;;5045066;28;20032;-83
2022/11/22 03:27:11;;;;;;;8.75;5.80;;;11.30;92.00;;;;;;5042681;28;20033;-83
2022/11/22 03:29:36;;;;;;;8.20;5.47;;;11.30;92.10;;;;;;5051917;28;20409;-83
2022/11/22 03:32:02;;;;;;;5.70;5.00;;;11.20;92.20;;;;;;5018368;28;20087;-83
2022/11/22 03:34:28;;;;;;;6.90;4.45;;;11.20;92.50;;;;;;5040250;28;20108;-83
2022/11/22 03:36:53;;;;;;;8.43;4.30;;;11.00;92.90;;;;;;5043868;28;20051;-83
2022/11/22 03:39:19;;;;;;;5.55;4.20;;;11.00;92.90;;;;;;5043608;28;20022;-83
2022/11/22 03:41:44;;;;;;;5.25;3.80;;;11.10;92.60;;;;;;5044823;28;20040;-83
2022/11/22 03:44:10;;;;;;;6.38;4.03;;;11.20;92.60;;;;;;5043865;28;20030;-83
2022/11/22 03:46:36;;;;;;;4.60;3.88;;;11.10;92.90;;;;;;5046638;28;20485;-83
2022/11/22 03:49:01;;;;;;;4.57;4.00;;;11.10;93.00;;;;;;5035730;28;20371;-86
2022/11/22 03:51:27;;;;;;;7.63;4.15;;;11.00;93.60;;;;;;5044864;28;20063;-86
2022/11/22 03:53:53;;;;;;;6.22;4.05;;;11.00;93.60;;;;;;5041271;28;20025;-88
2022/11/22 03:56:18;;;;;;;6.25;4.47;;;11.00;93.40;;;;;;5037700;28;20048;-88
2022/11/22 03:58:44;;;;;;;4.03;3.63;;;11.10;93.40;;;;;;5042107;28;20033;-88
2022/11/22 04:01:09;;;;;;;5.10;3.92;;;11.10;93.30;;;;;;5041740;28;20397;-87
2022/11/22 04:03:35;;;;;;;4.75;3.70;;;11.20;92.90;;;;;;5047780;28;20032;-87
2022/11/22 04:06:01;;;;;;;7.47;4.65;;;11.10;93.20;;;;;;5052163;28;20454;-88
2022/11/22 04:08:27;;;;;;;4.70;3.92;;;11.10;93.50;;;;;;5033560;28;20052;-86
2022/11/22 04:10:52;;;;;;;6.30;4.70;;;11.10;93.20;;;;;;5034489;28;20033;-86
2022/11/22 04:13:18;;;;;;;3.95;3.25;;;11.10;93.90;;;;;;5055528;28;20048;-85
2022/11/22 04:15:44;;;;;;;4.97;3.40;;;11.10;93.50;;;;;;5043938;28;20032;-87
2022/11/22 04:18:11;;;;;;;5.18;4.20;;;11.10;93.40;;;;;;5051301;28;20373;-85
2022/11/22 04:23:27;;;;;;;5.63;4.15;;;11.10;93.60;;;;;;5043604;28;20072;-86
2022/11/22 04:25:54;;;;;;;4.80;3.55;;;11.10;93.30;;;;;;5057191;28;20033;-85
2022/11/22 04:28:24;;;;;;;4.88;3.97;;;11.10;93.40;;;;;;5035040;28;20402;-85
2022/11/22 04:33:35;;;;;;;5.13;3.55;;;11.20;93.20;;;;;;5045505;28;20036;-84
2022/11/22 04:36:01;;;;;;;5.93;4.75;;;11.20;93.40;;;;;;5039196;28;20560;-85
2022/11/22 04:38:26;;;;;;;5.15;4.15;;;11.10;93.60;;;;;;5037319;28;20028;-84
2022/11/22 04:40:52;;;;;;;4.82;3.83;;;11.00;93.80;;;;;;5037542;28;20040;-85
2022/11/22 04:46:06;;;;;;;4.22;3.72;;;11.00;93.80;;;;;;5039809;28;20048;-84
2022/11/22 04:48:32;;;;;;;6.28;3.75;;;11.00;94.00;;;;;;5046875;28;20481;-84
2022/11/22 04:53:43;;;;;;;3.40;2.92;;;11.00;93.80;;;;;;5033029;28;20044;-83
2022/11/22 04:56:09;;;;;;;5.28;3.65;;;11.00;93.80;;;;;;5041242;28;20385;-83
2022/11/22 04:58:35;;;;;;;4.07;3.25;;;11.00;93.90;;;;;;5041707;28;20147;-83
2022/11/22 05:01:00;;;;;;;3.92;2.78;;;11.10;93.70;;;;;;5037643;28;20069;-83
2022/11/22 05:03:26;;;;;;;5.40;4.07;;;11.00;94.20;;;;;;5034001;28;20029;-82
2022/11/22 05:05:52;;;;;;;3.35;2.80;;;10.90;94.40;;;;;;5041919;28;20532;-82
2022/11/22 05:08:19;;;;;;;5.43;3.78;;;11.00;94.30;;;;;;5039005;28;20036;-84
2022/11/22 05:10:56;;;;;;;5.35;3.70;;;11.00;94.30;;;;;;5045021;28;20525;-84
2022/11/22 05:13:36;;;;;;;4.35;3.30;;;10.90;94.50;;;;;;5034503;28;20040;-86
2022/11/22 05:16:03;;;;;;;;;;;10.90;94.40;;;;;;5043816;28;20036;-83
2022/11/22 05:18:29;;;;;;;3.75;2.25;;;10.90;94.40;;;;;;5036044;28;19956;-83
2022/11/22 05:20:55;;;;;;;4.47;3.25;;;10.90;94.40;;;;;;5043495;28;20071;-84
2022/11/22 05:26:08;;;;;;;3.60;2.67;;;10.90;94.50;;;;;;5025047;28;20501;-84
2022/11/22 05:28:35;;;;;;;5.93;3.70;;;10.90;95.00;;;;;;5046542;28;20385;-84
2022/11/22 05:31:12;;;;;;;7.88;4.65;;;10.90;94.80;;;;;;5034701;28;20488;-84
2022/11/22 05:33:40;;;;;;;6.50;3.58;;;11.00;95.00;;;;;;5038317;28;20091;-83
2022/11/22 05:36:06;;;;;;;3.80;3.03;;;10.90;95.40;;;;;;5036939;28;20029;-84
2022/11/22 05:38:39;;;;;;;4.75;2.65;;;10.90;95.70;;;;;;5043130;28;20460;-86
2022/11/22 05:41:07;;;;;;;5.32;3.08;;;10.90;95.70;;;;;;5041477;28;20088;-84
2022/11/22 05:43:33;;;;;;;3.47;2.53;;;10.80;95.80;;;;;;5034694;28;20017;-81
2022/11/22 05:46:06;;;;;;;2.05;1.73;;;10.80;96.20;;;;;;5039793;28;20029;-81
2022/11/22 05:48:32;;;;;;;2.83;2.08;;;10.90;95.60;;;;;;5042176;28;20064;-81
2022/11/22 05:50:57;;;;;;;5.03;2.78;;;10.90;95.70;;;;;;5041683;28;20060;-82
2022/11/22 05:53:23;;;;;;;2.50;1.60;;;10.90;96.00;;;;;;5042840;28;20037;-81
2022/11/22 05:55:49;;;;;;;3.88;2.85;;;10.90;96.10;;;;;;5049681;28;20377;-81
2022/11/22 05:58:14;;;;;;;2.22;1.85;;;10.80;96.40;;;;;;5026458;28;20075;-82
2022/11/22 06:00:40;;;;;;;4.00;2.38;;;10.80;96.20;;;;;;5040753;28;20099;-81
2022/11/22 06:03:05;;;;;;;2.47;1.52;;;10.90;96.40;;;;;;5048678;28;20040;-83
2022/11/22 06:05:31;;;;;;;3.00;2.10;;;10.90;96.40;;;;;;5043428;28;20052;-82
2022/11/22 06:07:58;;;;;;;4.60;1.70;;;10.90;96.50;;;;;;5042791;28;20075;-81
2022/11/22 06:10:24;;;;;;;2.30;1.38;;;10.90;96.50;;;;;;5045991;28;20466;-77
2022/11/22 06:12:50;;;;;;;2.03;1.10;;;11.00;96.30;;;;;;5043479;28;20053;-77
2022/11/22 06:15:16;;;;;;;2.22;1.27;;;10.90;96.50;;;;;;5042216;28;20458;-76
2022/11/22 06:17:41;;;;;;;1.77;1.00;;;11.00;96.50;;;;;;5024592;28;22051;-78
2022/11/22 06:20:08;;;;;;;2.72;1.30;;;11.00;96.10;;;;;;5044688;28;21785;-78
2022/11/22 06:22:34;;;;;;;2.55;1.55;;;11.10;96.30;;;;;;5031670;28;20025;-78
2022/11/22 06:25:00;;;;;;;2.55;1.42;;;11.10;96.30;;;;;;5043247;28;20052;-78
2022/11/22 06:27:25;;;;;;;2.03;1.35;;;10.90;97.00;;;;;;5052330;28;20029;-78
2022/11/22 06:29:51;;;;;;;1.77;1.10;;;11.00;96.90;;;;;;5036063;28;20040;-78
2022/11/22 06:32:17;;;;;;;3.17;1.10;;;11.10;96.50;;;;;;5043356;28;20033;-78
2022/11/22 06:34:43;;;;;;;3.85;1.75;;;11.10;96.40;;;;;;5037410;28;20124;-80
2022/11/22 06:37:09;;;;;;;4.88;1.70;;;11.00;96.50;;;;;;5041773;28;20041;-78
2022/11/22 06:39:34;;;;;;;2.17;1.20;;;10.80;97.30;;;;;;5040734;28;20076;-78
2022/11/22 06:42:00;;;;;;;1.88;1.15;;;10.80;97.30;;;;;;5041105;28;20029;-79
2022/11/22 06:44:26;;;;;;;4.60;1.15;;;10.90;97.40;;;;;;5051900;28;20025;-79
2022/11/22 06:46:51;;;;;;;2.00;1.17;;;10.90;97.50;;;;;;5044835;28;20033;-77
2022/11/22 06:49:17;;;;;;;3.80;1.65;;;11.00;97.30;;;;;;5037115;28;20045;-77
2022/11/22 06:51:43;;;;;;;3.92;1.00;;;11.10;97.10;;;;;;5047755;28;20029;-76
2022/11/22 06:54:11;;;;;;;2.95;2.03;;;11.10;96.90;;;;;;5044882;28;20473;-76
2022/11/22 06:56:38;;;;;;;1.88;1.20;;;11.10;97.20;;;;;;5057396;28;20067;-76
2022/11/22 06:59:06;;;;;;;1.80;1.13;;;11.10;97.20;;;;;;5040658;28;20041;-76
2022/11/22 07:01:33;;;;;;;1.52;1.05;;;11.10;97.00;;;;;;5040868;28;20083;-75
2022/11/22 07:03:59;;;;;;;1.70;1.33;;;11.20;96.90;;;;;;5059056;28;20024;-76
2022/11/22 07:06:37;;;;;;;2.63;1.17;;;11.20;96.90;;;;;;5069872;28;20013;-76
2022/11/22 07:09:06;;;;;;;2.33;1.30;;;11.30;96.70;;;;;;5052410;28;20052;-77
2022/11/22 07:11:33;;;;;;;1.52;1.10;;;11.30;96.40;;;;;;5030130;28;20071;-76
2022/11/22 07:14:00;;;;;;;2.05;1.15;;;11.20;96.80;;;;;;5071148;28;20050;-77
2022/11/22 07:16:27;;;;;;;3.95;1.00;;;11.30;96.80;;;;;;5063545;28;20124;-76
2022/11/22 07:18:52;;;;;;;3.65;1.38;;;11.30;96.70;;;;;;5037247;28;20451;-76
2022/11/22 07:21:22;;;;;;;3.13;1.30;;;11.10;96.80;;;;;;5045396;28;20101;-75
2022/11/22 07:23:50;;;;;;;2.65;1.30;;;11.20;96.80;;;;;;5056044;28;20117;-76
2022/11/22 07:26:18;;;;;;;2.10;1.30;;;11.20;96.80;;;;;;5052441;28;20480;-75
2022/11/22 07:28:44;;;;;;;2.33;0.93;;;11.20;96.70;;;;;;5064911;28;20037;-77
2022/11/22 07:31:12;;;;;;;3.03;1.17;;;11.10;96.80;;;;;;5054988;28;20040;-77
2022/11/22 07:33:38;;;;;;;1.67;1.10;;;11.10;96.80;;;;;;5055122;28;20064;-76
2022/11/22 07:36:15;;;;;;;1.48;1.10;;;11.10;96.70;;;;;;5062081;28;20060;-76
2022/11/22 07:38:41;;;;;;;5.97;1.67;;;11.10;97.00;;;;;;5040952;28;20040;-77
2022/11/22 07:41:07;;;;;;;5.03;1.20;;;11.10;96.90;;;;;;5047402;28;20032;-79
2022/11/22 07:43:33;;;;;;;2.10;1.33;;;11.10;96.70;;;;;;5064994;28;20377;-77
2022/11/22 07:46:05;;;;;;;3.58;1.30;;;11.20;96.60;;;;;;5052055;28;20494;-76
2022/11/22 07:48:31;;;;;;;2.47;1.50;;;11.20;96.30;;;;;;5050333;28;20037;-79
2022/11/22 07:51:01;;;;;;;4.60;1.52;;;11.20;96.30;;;;;;5051657;28;20218;-77
2022/11/22 07:53:27;;;;;;;2.05;1.10;;;11.00;96.90;;;;;;5044060;28;20154;-78
2022/11/22 07:55:53;;;;;;;1.65;0.98;;;11.00;96.80;;;;;;5058898;28;20108;-80
2022/11/22 07:58:19;;;;;;;2.03;1.30;;;11.10;96.60;;;;;;5064578;28;20040;-79
2022/11/22 08:00:45;;;;;;;4.43;1.05;;;11.20;96.50;;;;;;5072792;28;20032;-79
2022/11/22 08:03:11;;;;;;;1.40;1.17;;;11.10;96.70;;;;;;5056348;28;20024;-78
2022/11/22 08:05:36;;;;;;;3.38;1.67;;;11.10;96.40;;;;;;5049063;28;20127;-80
2022/11/22 08:08:02;;;;;;;3.13;1.40;;;11.00;96.80;;;;;;5046683;28;20036;-79
2022/11/22 08:10:27;;;;;;;2.15;1.30;;;11.00;96.80;;;;;;5057180;28;20021;-79
2022/11/22 08:12:56;;;;;;;1.55;1.10;;;11.10;96.70;;;;;;5052336;28;20127;-80
2022/11/22 08:15:22;;;;;;;3.30;1.10;;;11.10;96.60;;;;;;5061635;28;20033;-80
2022/11/22 08:17:47;;;;;;;3.67;1.48;;;11.20;96.40;;;;;;5053570;28;20035;-82
2022/11/22 08:20:13;;;;;;;2.25;1.65;;;11.10;96.40;;;;;;5045683;28;20373;-80
2022/11/22 08:22:39;;;;;;;1.63;1.25;;;11.10;96.60;;;;;;5069483;28;20085;-80
2022/11/22 08:25:11;;;;;;;2.75;1.42;;;11.20;96.40;;;;;;5056487;28;20066;-80
2022/11/22 08:27:38;;;;;;;3.40;1.30;;;11.10;96.60;;;;;;5073066;28;20033;-80
2022/11/22 08:30:04;;;;;;;1.63;1.20;;;11.10;96.60;;;;;;5064507;28;20346;-80
2022/11/22 08:32:29;;;;;;;3.45;1.35;;;11.10;96.60;;;;;;5060135;28;20040;-80
2022/11/22 08:34:55;;;;;;;3.72;1.25;;;11.20;96.40;;;;;;5070084;28;20040;-80
2022/11/22 08:37:20;;;;;;;3.00;1.23;;;11.20;96.50;;;;;;5051192;28;20044;-78
2022/11/22 08:39:46;;;;;;;2.30;1.20;;;11.00;97.00;;;;;;5068521;28;20094;-78
2022/11/22 08:42:12;;;;;;;4.57;1.50;;;11.00;97.00;;;;;;5059143;28;20915;-78
2022/11/22 08:44:37;;;;;;;1.90;1.10;;;11.00;96.90;;;;;;5052946;28;20056;-79
2022/11/22 08:47:05;;;;;;;2.28;1.30;;;11.10;96.90;;;;;;5044706;28;20020;-78
2022/11/22 08:49:30;;;;;;;5.38;1.40;;;10.90;97.20;;;;;;5045963;28;20037;-76
2022/11/22 08:51:57;;;;;;;2.28;1.40;;;10.90;97.20;;;;;;5062238;28;20012;-76
2022/11/22 08:54:23;;;;;;;1.92;1.30;;;10.80;97.30;;;;;;5071497;28;20033;-76
2022/11/22 08:56:48;;;;;;;4.00;1.02;;;10.90;97.50;;;;;;5065742;28;20021;-76
2022/11/22 08:59:14;;;;;;;6.63;1.60;;;10.90;97.40;;;;;;5067681;28;20037;-75
2022/11/22 09:01:40;;;;;;;2.60;1.17;;;10.90;97.40;;;;;;5054187;28;20107;-76
2022/11/22 09:04:06;;;;;;;1.73;1.20;;;10.90;97.40;;;;;;5071122;28;20082;-76
2022/11/22 09:06:31;;;;;;;2.75;1.25;;;11.00;97.30;;;;;;5070700;28;20036;-78
2022/11/22 09:08:57;;;;;;;2.33;1.23;;;11.00;97.30;;;;;;5056070;28;20040;-76
2022/11/22 09:11:23;;;;;;;3.67;1.48;;;11.00;97.20;;;;;;5056924;28;20032;-75
2022/11/22 09:13:49;;;;;;;2.25;1.48;;;11.00;97.00;;;;;;5053734;28;20068;-78
2022/11/22 09:16:19;;;;;;;3.33;1.45;;;11.00;97.00;;;;;;5069380;28;20429;-78
2022/11/22 09:18:45;;;;;;;;;;;11.00;97.00;;;;;;5070616;28;20033;-77
2022/11/22 09:21:16;;;;;;;3.72;1.52;;;11.00;97.00;;;;;;5068504;28;19919;-78
2022/11/22 09:23:44;;;;;;;2.42;1.45;;;11.00;97.00;;;;;;5074412;28;20028;-78
2022/11/22 09:26:13;;;;;;;2.08;1.52;;;11.00;96.90;;;;;;5055414;28;20043;-79
2022/11/22 09:28:39;;;;;;;4.85;1.13;;;11.00;96.90;;;;;;5068356;28;20102;-79
2022/11/22 09:31:10;;;;;;;4.43;1.33;;;11.00;96.60;;;;;;5074636;28;20115;-77
2022/11/22 09:33:38;;;;;;;3.40;1.30;;;11.00;96.80;;;;;;5071061;28;20029;-77
2022/11/22 09:36:10;;;;;;;2.67;1.20;;;10.90;96.90;;;;;;5075436;28;20032;-79
2022/11/22 09:38:36;;;;;;;2.55;1.33;;;10.90;97.00;;;;;;5069626;28;20101;-79
2022/11/22 09:41:19;;;;;;;1.23;0.80;;;10.90;96.90;;;;;;5056710;28;20033;-77
2022/11/22 09:44:09;;;;;;;1.60;0.90;;;11.00;96.90;;;;;;5054639;28;20041;-78
2022/11/22 09:46:53;;;;;;;3.65;1.15;;;11.00;96.70;;;;;;5063574;28;20041;-78
2022/11/22 09:49:26;;;;;;;1.15;0.75;;;11.00;96.50;;;;;;5067503;28;20041;-83
2022/11/22 09:52:06;;;;;;;2.65;0.80;;;10.90;97.00;;;;;;5038007;28;20064;-78
2022/11/22 09:54:44;;;;;;;2.58;1.05;;;10.90;96.90;;;;;;5058998;28;20032;-78
2022/11/22 09:57:24;;;;;;;0.82;0.68;;;10.90;96.90;;;;;;5065574;28;20036;-78
2022/11/22 09:59:59;;;;;;;1.42;0.93;;;11.00;96.80;;;;;;5053165;28;20491;-77
2022/11/22 10:02:49;;;;;;;1.52;0.77;;;10.90;96.80;;;;;;5072903;28;20032;-77
2022/11/22 10:05:29;;;;;;;2.05;1.20;;;10.90;96.90;;;;;;5069669;28;20086;-78
2022/11/22 10:08:17;;;;;;;3.28;0.90;;;10.90;96.80;;;;;;5071741;28;20044;-78
2022/11/22 10:10:43;;;;;;;2.97;0.90;;;11.00;96.60;;;;;;5067246;28;20698;-78
2022/11/22 10:13:22;;;;;;;3.17;1.17;;;11.00;96.70;;;;;;5069429;28;20036;-78
2022/11/22 10:15:57;;;;;;;1.23;0.98;;;11.00;96.50;;;;;;5051144;28;20024;-79
2022/11/22 10:18:50;;;;;;;4.78;1.00;;;11.00;96.60;;;;;;5053613;28;20366;-79
2022/11/22 10:21:18;;;;;;;1.55;1.00;;;10.90;96.50;;;;;;5068729;28;20084;-79
2022/11/22 10:23:46;;;;;;;3.35;1.38;;;11.00;96.70;;;;;;5071178;28;20062;-79
2022/11/22 10:26:27;;;;;;;1.25;0.90;;;10.90;96.70;;;;;;5049431;28;20458;-78
2022/11/22 10:29:41;;;;;;;1.90;0.80;;;10.90;96.80;;;;;;5053423;28;20029;-78
2022/11/22 10:32:38;;;;;;;2.20;1.10;;;10.90;96.70;;;;;;4999344;28;20038;-78
2022/11/22 10:35:41;;;;;;;1.15;0.75;;;10.80;96.80;;;;;;5002555;28;20045;-78
2022/11/22 10:38:40;;;;;;;1.33;0.70;;;10.90;96.70;;;;;;5049977;28;20112;-78
2022/11/22 10:41:34;;;;;;;1.35;0.80;;;11.00;96.50;;;;;;5047492;28;20033;-79
2022/11/22 10:44:23;;;;;;;1.52;0.63;;;11.00;96.50;;;;;;5065461;28;20480;-78
2022/11/22 10:46:57;;;;;;;1.45;0.80;;;11.10;96.30;;;;;;5065005;28;20102;-78
2022/11/22 10:49:35;;;;;;;3.22;0.68;;;11.00;96.50;;;;;;5065238;28;20030;-77
2022/11/22 10:52:14;;;;;;;1.70;0.90;;;11.00;96.40;;;;;;5056502;28;20056;-79
2022/11/22 10:55:01;;;;;;;1.05;0.60;;;11.00;96.20;;;;;;5054726;28;20086;-79
2022/11/22 10:57:42;;;;;;;2.28;0.85;;;11.00;96.40;;;;;;5061280;28;20048;-78
2022/11/22 11:00:14;;;;;;;2.78;1.00;;;11.10;96.30;;;;;;5064769;28;20461;-79
2022/11/22 11:03:17;;;;;;;0.95;0.50;;;11.10;96.20;;;;;;5058987;28;20032;-79
2022/11/22 11:06:21;;;;;;;1.08;0.60;;;11.10;96.10;;;;;;5059662;28;20099;-78
2022/11/22 11:09:11;;;;;;;1.55;0.70;;;11.20;95.90;;;;;;5001631;28;20260;-78
2022/11/22 11:11:40;;;;;;;1.20;0.75;;;11.20;96.00;;;;;;5043386;28;20041;-79
2022/11/22 11:14:20;;;;;;;1.52;0.85;;;11.10;96.30;;;;;;5061361;28;20036;-77
2022/11/22 11:16:46;;;;;;;1.60;0.47;;;11.00;96.20;;;;;;5047279;28;20366;-77
2022/11/22 11:19:16;;;;;;;2.10;0.82;;;11.00;96.40;;;;;;5050764;28;20099;-77
2022/11/22 11:21:43;;;;;;;1.38;0.73;;;10.90;96.60;;;;;;5062593;22;20118;-77
2022/11/22 11:24:14;;;;;;;0.60;0.52;;;10.80;96.50;;;;;;5061441;28;20481;-76
2022/11/22 11:26:43;;;;;;;1.15;0.50;;;10.80;96.60;;;;;;5048461;28;20033;-77
2022/11/22 11:29:18;;;;;;;0.47;0.47;;;10.90;96.50;;;;;;5064809;28;20020;-76
2022/11/22 11:31:47;;;;;;;0.50;0.50;;;10.90;96.50;;;;;;5046504;28;20083;-77
2022/11/22 11:34:21;;;;;;;3.30;0.77;;;10.90;96.50;;;;;;5065588;28;20074;-76
2022/11/22 11:36:49;;;;;;;0.98;0.47;;;10.90;96.50;;;;;;5065129;28;20029;-77
2022/11/22 11:39:26;;;;;;;1.15;0.52;;;10.90;96.50;;;;;;5061964;28;20021;-76
2022/11/22 11:41:52;;;;;;;1.42;0.60;;;10.70;96.60;;;;;;5059790;28;20033;-77
2022/11/22 11:44:32;;;;;;;1.40;0.88;;;10.70;96.70;;;;;;5058464;28;20032;-77
2022/11/22 11:46:58;;;;;;;0.50;0.50;;;10.80;96.60;;;;;;5058198;28;20024;-77
2022/11/22 11:49:26;;;;;;;2.42;0.60;;;10.90;96.50;;;;;;5060508;28;20083;-77
2022/11/22 11:52:17;;;;;;;1.38;0.52;;;10.70;96.70;;;;;;5060339;28;20044;-76
2022/11/22 11:54:45;;;;;;;1.48;0.93;;;10.60;97.10;;;;;;5061085;28;20029;-77
2022/11/22 11:57:42;;;;;;;2.10;0.70;;;10.50;97.20;;;;;;5061552;28;20020;-76
2022/11/22 12:00:20;;;;;;;2.45;0.70;;;10.40;97.60;;;;;;5042200;28;20063;-77
2022/11/22 12:02:48;;;;;;;1.10;0.30;;;10.40;97.70;;;;;;5060468;28;20016;-77
2022/11/22 12:05:14;;;;;;;1.25;0.50;;;10.40;97.50;;;;;;5042344;28;20029;-77
2022/11/22 12:07:45;;;;;;;0.70;0.50;;;10.40;97.60;;;;;;5062074;28;20044;-77
2022/11/22 12:10:48;;;;;;;0.60;0.40;;;10.50;97.40;;;;;;5063535;28;20021;-77
2022/11/22 12:13:36;;;;;;;1.15;0.50;;;10.50;97.40;;;;;;5057931;28;21175;-77
2022/11/22 12:16:22;;;;;;;0.70;0.40;;;10.50;97.40;;;;;;5063430;28;20051;-78
2022/11/22 12:18:54;;;;;;;0.95;0.40;;;10.60;97.40;;;;;;5062724;28;20025;-78
2022/11/22 12:21:24;;;;;;;1.85;0.47;;;10.70;97.00;;;;;;5066196;28;20040;-77
2022/11/22 12:24:14;;;;;;;0.50;0.40;;;10.50;97.10;;;;;;5064549;28;20134;-77
2022/11/22 12:26:40;;;;;;;0.85;0.60;;;10.50;97.30;;;;;;5062997;28;20028;-77
2022/11/22 12:29:10;;;;;;;0.73;0.50;;;10.50;97.20;;;;;;5063339;28;20130;-77
2022/11/22 12:32:02;;;;;;;0.60;0.40;;;10.50;97.80;;;;;;5048030;28;20056;-78
2022/11/22 12:34:32;;;;;;;1.35;0.55;;;10.50;97.90;;;;;;5063570;28;20044;-78
2022/11/22 12:37:06;;;;;;;1.92;0.70;;;10.20;98.00;;;;;;5069322;28;20075;-78
2022/11/22 12:39:35;;;;;;;1.50;0.50;;;10.30;98.60;;;;;;5057245;28;20024;-77
2022/11/22 12:42:02;;;;;;;1.95;0.57;;;10.30;98.60;;;;;;5066548;28;20071;-77
2022/11/22 12:44:34;;;;;;;0.73;0.43;;;10.30;98.70;;;;;;5068666;28;20017;-77
2022/11/22 12:47:06;;;;;;;1.90;0.50;;;10.50;98.50;;;;;;5070313;28;20024;-79
2022/11/22 12:49:41;;;;;;;0.43;0.40;;;10.50;98.40;;;;;;5059005;28;20025;-78
2022/11/22 12:52:25;;;;;;;0.47;0.30;;;10.60;98.10;;;;;;5068610;28;20036;-79
2022/11/22 12:55:24;;;;;;;0.40;0.30;;;10.70;98.00;;;;;;5059641;28;20020;-82
2022/11/22 12:58:12;;;;;;;0.25;0.20;;;10.70;97.80;;;;;;5015605;28;20045;-83
2022/11/22 13:01:13;;;;;;;0.52;0.43;;;10.80;97.50;;;;;;5064507;28;20028;-82
2022/11/22 13:03:54;;;;;;;0.63;0.30;;;10.70;97.50;;;;;;5035358;28;20037;-84
2022/11/22 13:06:31;;;;;;;1.75;0.80;;;10.70;97.70;;;;;;5044078;28;20480;-85
2022/11/22 13:09:04;;;;;;;1.25;0.45;;;10.60;97.30;;;;;;5068839;28;20033;-84
2022/11/22 13:11:59;;;;;;;3.33;0.70;;;10.60;97.50;;;;;;5072690;28;20046;-85
2022/11/22 13:14:32;;;;;;;0.98;0.47;;;10.60;97.60;;;;;;5071494;28;20036;-85
2022/11/22 13:17:04;;;;;;;3.53;0.40;;;10.60;97.30;;;;;;5050877;28;20425;-86